Terminal Aerodrome Forecast
Issued by NWS Wilmington, OH

Current Version | Previous Version | Text Only | Print | Product List | Glossary Off
Versions: 1 2 3 4 5 6 7 8 9 10 11 12 13 14 15 16 17 18 19

000
FTUS41 KILN 262100 AAA
TAFCMH
TAF AMD
KCMH 262148Z 2622/2718 19015G24KT P6SM VCTS BKN050CB
      TEMPO 2622/2624 22020G30KT 2SM +TSRA OVC025CB
     FM270200 20012KT P6SM SCT040 BKN250
     FM270900 20007KT P6SM BKN010
     FM271500 21010KT P6SM SCT030=

USA.gov is the U.S. government's official web portal to all federal, state and local government web resources and services.